Time;durP1;ratioP1;P1;durP2;ratioP2;P2;SDS_P1;SDS_P2;PMS_P1;PMS_P2;Temp;Humidity;BMP_temperature;BMP_pressure;BME280_temperature;BME280_humidity;BME280_pressure;Samples;Min_cycle;Max_cycle;Signal;HPM_P1;HPM_P2
2023/10/30 00:01:18;;;;;;;77.67;75.07;;;14.50;99.90;;;;;;5029968;28;20224;-61
2023/10/30 00:03:45;;;;;;;77.30;74.67;;;14.50;99.90;;;;;;5030312;28;20315;-62
2023/10/30 00:06:12;;;;;;;84.73;81.93;;;14.50;99.90;;;;;;5036837;28;20235;-61
2023/10/30 00:08:38;;;;;;;97.70;94.40;;;14.50;99.90;;;;;;5042849;28;20216;-61
2023/10/30 00:11:05;;;;;;;94.03;90.83;;;14.50;99.90;;;;;;5045025;28;20205;-61
2023/10/30 00:13:32;;;;;;;63.47;61.27;;;14.50;99.90;;;;;;5043718;28;20292;-62
2023/10/30 00:15:59;;;;;;;119.77;115.83;;;14.40;99.90;;;;;;5030251;28;20205;-62
2023/10/30 00:18:28;;;;;;;81.00;78.30;;;14.40;99.90;;;;;;5029888;28;20204;-61
2023/10/30 00:20:55;;;;;;;80.17;77.47;;;14.40;99.90;;;;;;5029850;28;20279;-61
2023/10/30 00:23:21;;;;;;;72.33;69.87;;;14.50;99.90;;;;;;5029465;28;20307;-61
2023/10/30 00:25:48;;;;;;;59.90;57.83;;;14.50;99.90;;;;;;5027564;28;20219;-62
2023/10/30 00:28:15;;;;;;;60.57;58.53;;;14.50;99.90;;;;;;5029851;28;20623;-62
2023/10/30 00:30:42;;;;;;;58.37;56.37;;;14.60;99.90;;;;;;5033218;28;20218;-60
2023/10/30 00:33:08;;;;;;;66.13;63.90;;;14.50;99.90;;;;;;5035150;28;20225;-61
2023/10/30 00:35:36;;;;;;;60.77;58.70;;;14.50;99.90;;;;;;5031481;28;20215;-61
2023/10/30 00:38:03;;;;;;;58.03;56.10;;;14.50;99.90;;;;;;5029921;28;20289;-60
2023/10/30 00:40:30;;;;;;;78.67;76.03;;;14.60;99.90;;;;;;5029231;28;20232;-61
2023/10/30 00:42:56;;;;;;;27.07;26.17;;;14.60;99.90;;;;;;5029155;28;20201;-62
2023/10/30 00:45:23;;;;;;;45.70;44.13;;;14.50;99.90;;;;;;5029327;28;20212;-60
2023/10/30 00:47:50;;;;;;;64.10;62.00;;;14.60;99.90;;;;;;5026865;28;20706;-60
2023/10/30 00:50:17;;;;;;;26.30;25.43;;;14.70;99.90;;;;;;5029364;28;20205;-61
2023/10/30 00:52:45;;;;;;;21.87;21.13;;;14.60;99.90;;;;;;5028872;28;20637;-61
2023/10/30 00:55:11;;;;;;;57.90;55.90;;;14.70;99.90;;;;;;5028606;28;20197;-60
2023/10/30 00:57:38;;;;;;;56.57;54.60;;;14.70;99.90;;;;;;5032507;28;20201;-61
2023/10/30 01:00:06;;;;;;;30.60;29.57;;;14.60;99.90;;;;;;5032180;28;20221;-62
2023/10/30 01:02:33;;;;;;;59.33;57.33;;;14.60;99.90;;;;;;5031599;28;20231;-60
2023/10/30 01:05:00;;;;;;;82.77;80.00;;;14.50;99.90;;;;;;5031927;28;20224;-60
2023/10/30 01:07:26;;;;;;;21.43;20.73;;;14.60;99.90;;;;;;5032045;28;20671;-61
2023/10/30 01:09:54;;;;;;;20.83;20.13;;;14.60;99.90;;;;;;5031861;28;20197;-61
2023/10/30 01:12:21;;;;;;;53.83;52.03;;;14.60;99.90;;;;;;5031798;28;20694;-61
2023/10/30 01:14:48;;;;;;;39.00;37.67;;;14.70;99.90;;;;;;5031667;28;20224;-61
2023/10/30 01:17:15;;;;;;;51.93;50.17;;;14.60;99.90;;;;;;5031675;28;20647;-62
2023/10/30 01:19:43;;;;;;;59.20;57.17;;;14.70;99.90;;;;;;5033179;28;20220;-61
2023/10/30 01:22:09;;;;;;;63.20;61.03;;;14.60;99.90;;;;;;5035059;28;20219;-61
2023/10/30 01:24:36;;;;;;;29.53;28.53;;;14.60;99.90;;;;;;5032971;28;20259;-62
2023/10/30 01:27:04;;;;;;;61.97;59.83;;;14.60;99.90;;;;;;5032429;28;20213;-61
2023/10/30 01:29:31;;;;;;;56.87;54.93;;;14.60;99.90;;;;;;5032235;28;20663;-61
2023/10/30 01:31:58;;;;;;;51.97;50.10;;;14.60;99.90;;;;;;5033256;28;20216;-62
2023/10/30 01:34:24;;;;;;;66.93;64.63;;;14.60;99.90;;;;;;5032280;28;20239;-61
2023/10/30 01:36:51;;;;;;;69.67;67.33;;;14.50;99.90;;;;;;5032199;28;20219;-61
2023/10/30 01:39:18;;;;;;;30.67;29.57;;;14.50;99.90;;;;;;5032297;28;20232;-61
2023/10/30 01:41:45;;;;;;;43.93;42.43;;;14.50;99.90;;;;;;5031956;28;20204;-61
2023/10/30 01:44:13;;;;;;;67.23;64.97;;;14.50;99.90;;;;;;5029023;28;20232;-61
2023/10/30 01:46:40;;;;;;;51.20;49.47;;;14.50;99.90;;;;;;5032543;28;20549;-61
2023/10/30 01:49:07;;;;;;;59.57;57.53;;;14.50;99.90;;;;;;5032051;28;20213;-61
2023/10/30 01:51:33;;;;;;;45.27;43.73;;;14.50;99.90;;;;;;5031842;28;20208;-60
2023/10/30 01:54:00;;;;;;;21.73;21.00;;;14.50;99.90;;;;;;5031992;28;20232;-60
2023/10/30 01:56:28;;;;;;;39.00;37.67;;;14.50;99.90;;;;;;5031803;28;20223;-60
2023/10/30 01:58:55;;;;;;;29.67;28.63;;;14.50;99.90;;;;;;5032039;28;20208;-61
2023/10/30 02:01:23;;;;;;;26.23;25.30;;;14.40;99.90;;;;;;5031752;28;20232;-60
2023/10/30 02:03:52;;;;;;;21.87;21.13;;;14.40;99.90;;;;;;5031685;28;20232;-61
2023/10/30 02:06:19;;;;;;;39.03;37.63;;;14.50;99.90;;;;;;5032007;28;20209;-61
2023/10/30 02:08:46;;;;;;;32.90;31.73;;;14.40;99.90;;;;;;5031297;28;20266;-62
2023/10/30 02:11:13;;;;;;;28.97;27.97;;;14.40;99.90;;;;;;5031720;28;20201;-62
2023/10/30 02:13:39;;;;;;;30.80;29.73;;;14.20;99.90;;;;;;5031430;28;20236;-60
2023/10/30 02:16:06;;;;;;;35.53;34.23;;;14.20;99.90;;;;;;5031454;28;20212;-61
2023/10/30 02:18:34;;;;;;;39.20;37.83;;;14.10;99.90;;;;;;5031856;28;20228;-60
2023/10/30 02:21:01;;;;;;;37.73;36.40;;;14.00;99.90;;;;;;5031397;28;20303;-61
2023/10/30 02:23:28;;;;;;;44.20;42.70;;;13.90;99.90;;;;;;5031082;28;20545;-60
2023/10/30 02:25:56;;;;;;;43.60;42.07;;;13.90;99.90;;;;;;5031470;28;20216;-60
2023/10/30 02:28:23;;;;;;;52.67;50.87;;;13.90;99.90;;;;;;5031323;28;20219;-61
2023/10/30 02:30:49;;;;;;;52.97;51.17;;;13.80;99.90;;;;;;5030365;28;20679;-60
2023/10/30 02:33:16;;;;;;;54.23;52.33;;;13.90;99.90;;;;;;5030809;28;20602;-61
2023/10/30 02:35:43;;;;;;;68.33;66.03;;;13.90;99.90;;;;;;5030906;28;20224;-61
2023/10/30 02:38:09;;;;;;;52.00;50.13;;;13.80;99.90;;;;;;5031029;28;20216;-62
2023/10/30 02:40:36;;;;;;;30.47;29.40;;;13.80;99.90;;;;;;5030782;28;20237;-60
2023/10/30 02:43:04;;;;;;;42.47;40.90;;;13.80;99.90;;;;;;5030688;28;20216;-60
2023/10/30 02:45:31;;;;;;;46.63;44.93;;;13.70;99.90;;;;;;5030875;28;20675;-62
2023/10/30 02:47:58;;;;;;;78.93;76.27;;;13.60;99.90;;;;;;5030922;28;20686;-61
2023/10/30 02:50:24;;;;;;;61.50;59.37;;;13.60;99.90;;;;;;5030792;28;20235;-60
2023/10/30 02:52:51;;;;;;;70.30;67.93;;;13.60;99.90;;;;;;5029943;28;20213;-61
2023/10/30 02:55:18;;;;;;;58.37;56.37;;;13.60;99.90;;;;;;5030772;28;20214;-61
2023/10/30 02:57:45;;;;;;;89.60;86.43;;;13.60;99.90;;;;;;5030820;28;20232;-61
2023/10/30 03:00:14;;;;;;;43.93;42.40;;;13.60;99.90;;;;;;5030843;28;20220;-61
2023/10/30 03:02:41;;;;;;;65.90;63.67;;;13.50;99.90;;;;;;5030004;28;20239;-61
2023/10/30 03:05:09;;;;;;;29.13;28.07;;;13.60;99.90;;;;;;5030059;28;20224;-61
2023/10/30 03:07:35;;;;;;;34.93;33.70;;;13.60;99.90;;;;;;5030617;28;20215;-60
2023/10/30 03:10:02;;;;;;;33.40;32.23;;;13.60;99.90;;;;;;5030246;28;20227;-61
2023/10/30 03:12:29;;;;;;;29.63;28.57;;;13.50;99.90;;;;;;5029365;28;20543;-60
2023/10/30 03:14:56;;;;;;;30.70;29.63;;;13.50;99.90;;;;;;5029990;28;20229;-61
2023/10/30 03:17:24;;;;;;;31.60;30.50;;;13.50;99.90;;;;;;5031130;28;20209;-60
2023/10/30 03:19:50;;;;;;;31.50;30.40;;;13.50;99.90;;;;;;5029466;28;20310;-61
2023/10/30 03:22:17;;;;;;;25.17;24.33;;;13.50;99.90;;;;;;5030250;28;20216;-61
2023/10/30 03:24:44;;;;;;;40.10;38.70;;;13.50;99.90;;;;;;5028215;28;20232;-60
2023/10/30 03:27:10;;;;;;;34.07;32.90;;;13.50;99.90;;;;;;5030463;28;20734;-61
2023/10/30 03:29:37;;;;;;;37.53;36.23;;;13.50;99.90;;;;;;5030896;28;20348;-63
2023/10/30 03:32:04;;;;;;;36.47;35.23;;;13.50;99.90;;;;;;5030310;28;20212;-61
2023/10/30 03:34:35;;;;;;;25.70;24.80;;;13.50;99.90;;;;;;5030274;28;20682;-61
2023/10/30 03:37:02;;;;;;;27.10;26.10;;;13.50;99.90;;;;;;5030209;28;20212;-61
2023/10/30 03:39:29;;;;;;;27.20;26.30;;;13.50;99.90;;;;;;5030247;28;20232;-61
2023/10/30 03:41:55;;;;;;;28.47;27.47;;;13.60;99.90;;;;;;5029765;28;20236;-62
2023/10/30 03:44:26;;;;;;;24.67;23.83;;;13.60;99.90;;;;;;5029859;28;20240;-61
2023/10/30 03:46:52;;;;;;;23.73;22.93;;;13.60;99.90;;;;;;5030083;28;20296;-61
2023/10/30 03:49:19;;;;;;;25.47;24.60;;;13.60;99.90;;;;;;5029881;28;20212;-61
2023/10/30 03:51:47;;;;;;;26.53;25.63;;;13.50;99.90;;;;;;5029867;28;20219;-61
2023/10/30 03:54:14;;;;;;;25.43;24.53;;;13.50;99.90;;;;;;5029798;28;20236;-62
2023/10/30 03:56:41;;;;;;;26.50;25.53;;;13.50;99.90;;;;;;5030063;28;20219;-60
2023/10/30 03:59:07;;;;;;;25.30;24.43;;;13.50;99.90;;;;;;5030160;28;20602;-61
2023/10/30 04:01:35;;;;;;;25.40;24.50;;;13.50;99.90;;;;;;5029906;28;20308;-62
2023/10/30 04:04:02;;;;;;;25.10;24.20;;;13.50;99.90;;;;;;5029852;28;20244;-61
2023/10/30 04:06:29;;;;;;;25.37;24.47;;;13.50;99.90;;;;;;5030060;28;20303;-61
2023/10/30 04:08:57;;;;;;;25.00;24.17;;;13.50;99.90;;;;;;5030294;28;20756;-61
2023/10/30 04:11:24;;;;;;;24.20;23.40;;;13.50;99.90;;;;;;5030111;28;20334;-61
2023/10/30 04:13:51;;;;;;;27.73;26.77;;;13.60;99.90;;;;;;5032712;28;20233;-61
2023/10/30 04:16:17;;;;;;;27.87;26.87;;;13.60;99.90;;;;;;5034312;28;20247;-62
2023/10/30 04:18:44;;;;;;;25.53;24.63;;;13.60;99.90;;;;;;5043752;28;20204;-61
2023/10/30 04:21:11;;;;;;;30.97;29.87;;;13.60;99.90;;;;;;5039101;28;20596;-62
2023/10/30 04:23:38;;;;;;;28.57;27.57;;;13.60;99.90;;;;;;5040491;28;20259;-60
2023/10/30 04:26:06;;;;;;;28.33;27.33;;;13.50;99.90;;;;;;5035094;28;20355;-60
2023/10/30 04:28:32;;;;;;;26.93;26.03;;;13.50;99.90;;;;;;5029123;28;20208;-61
2023/10/30 04:30:59;;;;;;;27.20;26.27;;;13.50;99.90;;;;;;5032754;28;20204;-60
2023/10/30 04:33:26;;;;;;;24.53;23.67;;;13.50;99.90;;;;;;5033964;28;20656;-62
2023/10/30 04:35:53;;;;;;;29.70;28.70;;;13.50;99.90;;;;;;5033864;28;20208;-62
2023/10/30 04:38:20;;;;;;;28.60;27.60;;;13.50;99.90;;;;;;5033454;28;20667;-62
2023/10/30 04:40:47;;;;;;;25.93;25.03;;;13.60;99.90;;;;;;5033633;28;20235;-61
2023/10/30 04:43:15;;;;;;;26.37;25.47;;;13.60;99.90;;;;;;5033299;28;20228;-62
2023/10/30 04:45:41;;;;;;;25.80;24.90;;;13.60;99.90;;;;;;5033788;28;20629;-61
2023/10/30 04:48:08;;;;;;;24.73;23.90;;;13.60;99.90;;;;;;5033454;28;20213;-62
2023/10/30 04:50:35;;;;;;;25.00;24.10;;;13.60;99.90;;;;;;5033665;28;20617;-61
2023/10/30 04:53:01;;;;;;;19.80;19.10;;;13.70;99.90;;;;;;5033148;28;20239;-62
2023/10/30 04:55:28;;;;;;;25.40;24.50;;;13.70;99.90;;;;;;5033815;28;20213;-62
2023/10/30 04:57:55;;;;;;;23.17;22.37;;;13.70;99.90;;;;;;5033912;28;20212;-61
2023/10/30 05:00:23;;;;;;;23.50;22.70;;;13.70;99.90;;;;;;5033374;28;20236;-62
2023/10/30 05:02:50;;;;;;;24.07;23.27;;;13.70;99.90;;;;;;5033086;28;20223;-61
2023/10/30 05:05:16;;;;;;;24.57;23.70;;;13.60;99.90;;;;;;5032832;28;20220;-60
2023/10/30 05:07:44;;;;;;;23.27;22.47;;;13.70;99.90;;;;;;5032794;28;20586;-60
2023/10/30 05:10:12;;;;;;;21.60;20.87;;;13.70;99.90;;;;;;5032998;28;20236;-61
2023/10/30 05:12:39;;;;;;;24.40;23.57;;;13.70;99.90;;;;;;5032923;28;20209;-61
2023/10/30 05:15:08;;;;;;;24.77;23.90;;;13.60;99.90;;;;;;5033413;28;20658;-61
2023/10/30 05:17:37;;;;;;;26.83;25.90;;;13.60;99.90;;;;;;5028340;28;20643;-61
2023/10/30 05:20:04;;;;;;;24.03;23.20;;;13.60;99.90;;;;;;5032705;28;20558;-61
2023/10/30 05:22:32;;;;;;;27.90;26.90;;;13.60;99.90;;;;;;5032458;28;20228;-61
2023/10/30 05:24:59;;;;;;;30.30;29.27;;;13.50;99.90;;;;;;5032770;28;20229;-61
2023/10/30 05:27:27;;;;;;;28.97;27.97;;;13.50;99.90;;;;;;5032671;28;20239;-62
2023/10/30 05:29:54;;;;;;;30.13;29.10;;;13.60;99.90;;;;;;5032329;28;20212;-60
2023/10/30 05:32:21;;;;;;;27.73;26.80;;;13.60;99.90;;;;;;5032046;28;20208;-61
2023/10/30 05:34:49;;;;;;;29.40;28.40;;;13.50;99.90;;;;;;5032823;28;20232;-61
2023/10/30 05:37:16;;;;;;;26.60;25.63;;;13.50;99.90;;;;;;5032614;28;20212;-62
2023/10/30 05:39:43;;;;;;;27.77;26.80;;;13.50;99.90;;;;;;5032440;28;20700;-61
2023/10/30 05:42:10;;;;;;;27.83;26.80;;;13.50;99.90;;;;;;5031069;28;20232;-60
2023/10/30 05:44:37;;;;;;;27.83;26.90;;;13.50;99.90;;;;;;5032548;28;20224;-62
2023/10/30 05:47:04;;;;;;;29.83;28.80;;;13.50;99.90;;;;;;5032553;28;20215;-61
2023/10/30 05:49:31;;;;;;;30.03;29.00;;;13.40;99.90;;;;;;5032535;28;20243;-61
2023/10/30 05:51:59;;;;;;;30.10;29.03;;;13.30;99.90;;;;;;5031840;28;20213;-61
2023/10/30 05:54:26;;;;;;;31.67;30.57;;;13.40;99.90;;;;;;5032178;28;20232;-61
2023/10/30 05:56:52;;;;;;;31.87;30.77;;;13.30;99.90;;;;;;5032170;28;20220;-60
2023/10/30 05:59:19;;;;;;;31.33;30.23;;;13.30;99.90;;;;;;5032271;28;20614;-61
2023/10/30 06:01:47;;;;;;;28.80;27.77;;;13.30;99.90;;;;;;5031763;28;20578;-60
2023/10/30 06:04:14;;;;;;;31.07;29.97;;;13.30;99.90;;;;;;5029797;28;20229;-61
2023/10/30 06:06:41;;;;;;;27.77;26.77;;;13.30;99.90;;;;;;5041547;28;20272;-62
2023/10/30 06:09:09;;;;;;;33.43;32.27;;;13.20;99.90;;;;;;5047565;28;20227;-61
2023/10/30 06:11:35;;;;;;;29.33;28.30;;;13.20;99.90;;;;;;5047734;28;20204;-61
2023/10/30 06:14:02;;;;;;;32.33;31.13;;;13.20;99.90;;;;;;5048089;28;20240;-62
2023/10/30 06:16:29;;;;;;;33.57;32.40;;;13.20;99.90;;;;;;5038371;28;20660;-61
2023/10/30 06:18:55;;;;;;;29.73;28.67;;;13.20;99.90;;;;;;5032161;28;20208;-61
2023/10/30 06:21:22;;;;;;;28.87;27.80;;;13.20;99.90;;;;;;5031994;28;20239;-59
2023/10/30 06:23:49;;;;;;;26.63;25.73;;;13.20;99.90;;;;;;5031852;28;20315;-60
2023/10/30 06:26:17;;;;;;;27.67;26.70;;;13.30;99.90;;;;;;5031650;28;20216;-61
2023/10/30 06:28:44;;;;;;;26.17;25.27;;;13.30;99.90;;;;;;5031332;28;20215;-62
2023/10/30 06:31:17;;;;;;;25.23;24.37;;;13.30;99.90;;;;;;5032274;28;20407;-62
2023/10/30 06:33:44;;;;;;;24.47;23.63;;;13.30;99.90;;;;;;5040844;28;20679;-63
2023/10/30 06:36:11;;;;;;;19.67;18.97;;;13.40;99.90;;;;;;5042604;28;20216;-65
2023/10/30 06:38:38;;;;;;;24.40;23.57;;;13.40;99.90;;;;;;5043223;28;20212;-64
2023/10/30 06:41:05;;;;;;;20.00;19.20;;;13.50;99.90;;;;;;5041129;28;20225;-64
2023/10/30 06:43:33;;;;;;;18.40;17.80;;;13.50;99.90;;;;;;5039148;28;20236;-64
2023/10/30 06:46:00;;;;;;;19.23;18.53;;;13.60;99.90;;;;;;5032284;28;20205;-66
2023/10/30 06:48:27;;;;;;;19.37;18.67;;;13.70;99.90;;;;;;5031182;28;20255;-66
2023/10/30 06:50:55;;;;;;;20.77;20.07;;;13.70;99.90;;;;;;5030934;28;20239;-65
2023/10/30 06:53:22;;;;;;;23.63;22.83;;;13.60;99.90;;;;;;5030680;28;20262;-65
2023/10/30 06:55:49;;;;;;;23.33;22.53;;;13.60;99.90;;;;;;5030398;28;20238;-70
2023/10/30 06:58:16;;;;;;;19.77;19.07;;;13.60;99.90;;;;;;5031300;28;20208;-65
2023/10/30 07:00:44;;;;;;;20.73;20.00;;;13.50;99.90;;;;;;5031869;28;20539;-64
2023/10/30 07:03:11;;;;;;;18.97;18.30;;;13.60;99.90;;;;;;5030781;28;20330;-63
2023/10/30 07:05:38;;;;;;;19.00;18.37;;;13.60;99.90;;;;;;5032263;28;20213;-64
2023/10/30 07:08:05;;;;;;;19.93;19.23;;;13.70;99.90;;;;;;5032038;28;20219;-63
2023/10/30 07:10:32;;;;;;;21.23;20.50;;;13.60;99.90;;;;;;5030859;28;20566;-63
2023/10/30 07:12:58;;;;;;;22.83;22.07;;;13.70;99.90;;;;;;5031528;28;20208;-64
2023/10/30 07:15:26;;;;;;;18.87;18.23;;;13.70;99.90;;;;;;5031600;28;20215;-63
2023/10/30 07:17:55;;;;;;;19.37;18.73;;;13.70;99.90;;;;;;5030027;28;20204;-63
2023/10/30 07:20:21;;;;;;;20.63;19.90;;;13.60;99.90;;;;;;5029756;28;20204;-64
2023/10/30 07:22:48;;;;;;;19.67;18.97;;;13.70;99.90;;;;;;5028449;28;20685;-65
2023/10/30 07:25:15;;;;;;;19.27;18.57;;;13.60;99.90;;;;;;5029138;28;20221;-64
2023/10/30 07:27:42;;;;;;;17.83;17.23;;;13.60;99.90;;;;;;5029613;28;20300;-65
2023/10/30 07:30:09;;;;;;;17.57;16.97;;;13.70;99.90;;;;;;5029746;28;20213;-65
2023/10/30 07:32:36;;;;;;;18.30;17.70;;;13.80;99.90;;;;;;5029473;28;20208;-64
2023/10/30 07:35:06;;;;;;;18.03;17.43;;;13.80;99.90;;;;;;5030258;28;21544;-63
2023/10/30 07:37:34;;;;;;;17.50;16.90;;;13.90;99.90;;;;;;5029565;28;20291;-63
2023/10/30 07:40:00;;;;;;;18.20;17.60;;;14.00;99.90;;;;;;5027942;28;20565;-63
2023/10/30 07:42:27;;;;;;;17.23;16.63;;;14.00;99.90;;;;;;5027354;28;20323;-64
2023/10/30 07:44:54;;;;;;;18.20;17.60;;;14.10;99.90;;;;;;5025931;28;20580;-65
2023/10/30 07:47:20;;;;;;;18.40;17.80;;;14.10;99.90;;;;;;5026952;28;20208;-64
2023/10/30 07:49:47;;;;;;;19.83;19.13;;;14.10;99.90;;;;;;5026191;28;20236;-64
2023/10/30 07:52:15;;;;;;;17.83;17.23;;;14.10;99.90;;;;;;5026723;28;20201;-64
2023/10/30 07:54:42;;;;;;;18.20;17.60;;;14.10;99.90;;;;;;5026367;28;20335;-65
2023/10/30 07:57:09;;;;;;;18.57;17.97;;;14.20;99.90;;;;;;5027626;28;20204;-64
2023/10/30 07:59:36;;;;;;;18.83;18.13;;;14.30;99.90;;;;;;5025604;28;20227;-65
2023/10/30 08:02:03;;;;;;;17.30;16.70;;;14.50;99.90;;;;;;5028575;28;20240;-64
2023/10/30 08:04:30;;;;;;;16.83;16.23;;;14.60;99.90;;;;;;5029101;28;20264;-64
2023/10/30 08:06:57;;;;;;;18.20;17.60;;;14.70;99.90;;;;;;5032944;28;20219;-66
2023/10/30 08:09:25;;;;;;;17.80;17.20;;;14.90;99.90;;;;;;5033882;28;20231;-65
2023/10/30 08:11:52;;;;;;;16.00;15.47;;;15.20;99.90;;;;;;5033968;28;20296;-64
2023/10/30 08:14:18;;;;;;;14.57;14.07;;;15.30;99.90;;;;;;5032994;28;20236;-64
2023/10/30 08:16:45;;;;;;;18.33;17.70;;;15.50;99.90;;;;;;5032727;28;20219;-64
2023/10/30 08:19:12;;;;;;;19.50;18.80;;;15.60;99.90;;;;;;5033138;28;20213;-64
2023/10/30 08:21:38;;;;;;;17.80;17.20;;;15.60;99.90;;;;;;5032912;28;20240;-64
2023/10/30 08:24:06;;;;;;;18.23;17.63;;;15.70;99.90;;;;;;5032193;28;20235;-64
2023/10/30 08:26:34;;;;;;;18.87;18.27;;;15.80;99.90;;;;;;5033085;28;20213;-64
2023/10/30 08:29:01;;;;;;;19.23;18.60;;;15.90;99.90;;;;;;5033488;28;20209;-64
2023/10/30 08:31:28;;;;;;;19.20;18.50;;;16.00;99.90;;;;;;5033447;28;20291;-65
2023/10/30 08:33:57;;;;;;;15.50;15.00;;;16.10;99.90;;;;;;5033375;28;20233;-64
2023/10/30 08:36:24;;;;;;;13.90;13.40;;;16.30;99.90;;;;;;5033745;28;20543;-64
2023/10/30 08:38:50;;;;;;;16.00;15.43;;;16.50;99.90;;;;;;5033533;28;20227;-63
2023/10/30 08:41:17;;;;;;;15.23;14.73;;;16.70;99.90;;;;;;5033276;28;20250;-64
2023/10/30 08:43:46;;;;;;;16.20;15.67;;;16.70;99.90;;;;;;5033392;28;20319;-66
2023/10/30 08:46:17;;;;;;;14.90;14.40;;;16.60;99.90;;;;;;5033121;28;20681;-62
2023/10/30 08:48:43;;;;;;;14.07;13.57;;;16.60;99.90;;;;;;5033686;28;20240;-66
2023/10/30 08:51:10;;;;;;;22.63;21.87;;;16.50;99.90;;;;;;5033458;28;20212;-65
2023/10/30 08:53:37;;;;;;;15.30;14.80;;;16.50;99.90;;;;;;5031248;28;20232;-64
2023/10/30 08:56:05;;;;;;;15.67;15.07;;;16.20;99.90;;;;;;5032351;28;20243;-65
2023/10/30 08:58:32;;;;;;;15.20;14.70;;;16.00;99.90;;;;;;5033151;28;20289;-65
2023/10/30 09:01:00;;;;;;;14.27;13.77;;;16.10;99.90;;;;;;5032808;28;20849;-60
2023/10/30 09:03:27;;;;;;;15.03;14.53;;;16.40;99.90;;;;;;5032955;28;20233;-61
2023/10/30 09:05:54;;;;;;;14.03;13.53;;;16.70;99.90;;;;;;5032991;28;20235;-61
2023/10/30 09:08:20;;;;;;;13.73;13.23;;;16.80;99.90;;;;;;5033139;28;20213;-62
2023/10/30 09:10:47;;;;;;;13.47;13.03;;;17.00;99.90;;;;;;5033337;28;20219;-61
2023/10/30 09:13:14;;;;;;;13.97;13.47;;;17.00;99.90;;;;;;5032291;28;20711;-60
2023/10/30 09:15:40;;;;;;;13.67;13.17;;;17.20;99.90;;;;;;5031954;28;20209;-61
2023/10/30 09:18:08;;;;;;;14.23;13.73;;;17.20;99.90;;;;;;5030782;28;20197;-60
2023/10/30 09:20:35;;;;;;;14.33;13.83;;;17.30;99.90;;;;;;5033493;28;20759;-61
2023/10/30 09:23:02;;;;;;;14.20;13.70;;;17.30;99.90;;;;;;5032878;28;20419;-61
2023/10/30 09:25:28;;;;;;;14.20;13.70;;;17.30;99.90;;;;;;5032702;28;20208;-66
2023/10/30 09:27:55;;;;;;;15.00;14.50;;;17.40;99.90;;;;;;5032975;28;20223;-66
2023/10/30 09:30:27;;;;;;;15.60;15.03;;;17.20;99.90;;;;;;5032916;28;20220;-63
2023/10/30 09:32:54;;;;;;;15.43;14.93;;;17.10;99.90;;;;;;5032596;28;20236;-67
2023/10/30 09:35:23;;;;;;;17.00;16.40;;;17.00;99.90;;;;;;5031936;28;20215;-64
2023/10/30 09:37:50;;;;;;;14.57;14.07;;;17.00;99.90;;;;;;5031178;28;20684;-63
2023/10/30 09:40:17;;;;;;;14.30;13.80;;;17.00;99.90;;;;;;5031739;28;20219;-64
2023/10/30 09:42:52;;;;;;;15.77;15.20;;;16.90;99.90;;;;;;5030127;28;20232;-63
2023/10/30 09:45:22;;;;;;;14.23;13.70;;;16.80;99.90;;;;;;5032474;28;20687;-62
2023/10/30 09:47:51;;;;;;;15.03;14.53;;;16.70;99.90;;;;;;5032643;28;20204;-64
2023/10/30 09:50:18;;;;;;;14.47;13.97;;;16.60;99.90;;;;;;5032180;28;20213;-66
2023/10/30 09:52:48;;;;;;;15.17;14.67;;;16.60;99.90;;;;;;5031941;28;20628;-66
2023/10/30 09:55:18;;;;;;;14.47;13.97;;;16.50;99.90;;;;;;5031994;28;20212;-64
2023/10/30 09:57:48;;;;;;;14.63;14.13;;;16.50;99.90;;;;;;5032272;28;20220;-63
2023/10/30 10:00:16;;;;;;;14.23;13.73;;;16.60;99.90;;;;;;5032218;28;20243;-64
2023/10/30 10:02:43;;;;;;;13.00;12.50;;;16.50;99.90;;;;;;5031811;28;20563;-64
2023/10/30 10:05:11;;;;;;;13.90;13.40;;;16.60;99.90;;;;;;5032087;28;20232;-65
2023/10/30 10:07:37;;;;;;;14.00;13.50;;;16.70;99.90;;;;;;5032763;28;20235;-65
2023/10/30 10:10:08;;;;;;;13.57;13.10;;;16.80;99.90;;;;;;5031651;28;20224;-65
2023/10/30 10:12:35;;;;;;;14.30;13.80;;;16.90;99.90;;;;;;5031783;28;20228;-64
2023/10/30 10:15:06;;;;;;;14.27;13.77;;;17.00;99.90;;;;;;5032259;28;20259;-65
2023/10/30 10:17:33;;;;;;;15.03;14.53;;;17.00;99.90;;;;;;5031950;28;20219;-65
2023/10/30 10:20:04;;;;;;;13.73;13.23;;;17.10;99.90;;;;;;5032007;28;20590;-65
2023/10/30 10:22:32;;;;;;;14.00;13.50;;;17.00;99.90;;;;;;5031831;28;20264;-64
2023/10/30 10:25:01;;;;;;;13.93;13.43;;;17.00;99.90;;;;;;5031343;28;20238;-64
2023/10/30 10:27:30;;;;;;;14.33;13.83;;;17.00;99.90;;;;;;5031922;28;20239;-63
2023/10/30 10:29:58;;;;;;;13.93;13.43;;;16.90;99.90;;;;;;5031174;28;20230;-64
2023/10/30 10:32:26;;;;;;;14.83;14.33;;;16.80;99.90;;;;;;5031101;28;20584;-64
2023/10/30 10:34:53;;;;;;;13.93;13.43;;;16.80;99.90;;;;;;5031211;28;20271;-65
2023/10/30 10:37:20;;;;;;;13.90;13.40;;;16.80;99.90;;;;;;5031495;28;20259;-64
2023/10/30 10:39:48;;;;;;;14.30;13.80;;;16.80;99.90;;;;;;5031867;28;20220;-63
2023/10/30 10:42:18;;;;;;;13.67;13.17;;;16.80;99.90;;;;;;5031150;28;20221;-65
2023/10/30 10:44:48;;;;;;;14.57;14.07;;;16.70;99.90;;;;;;5031998;28;20476;-65
2023/10/30 10:47:15;;;;;;;14.90;14.40;;;16.60;99.90;;;;;;5043331;28;20208;-66
2023/10/30 10:49:44;;;;;;;15.20;14.70;;;16.60;99.90;;;;;;5047717;28;20208;-64
2023/10/30 10:52:13;;;;;;;17.40;16.80;;;16.60;99.90;;;;;;5047271;28;20213;-64
2023/10/30 10:54:45;;;;;;;15.50;15.00;;;16.60;99.90;;;;;;5047736;28;20228;-64
2023/10/30 10:57:16;;;;;;;14.03;13.53;;;16.60;99.90;;;;;;5037288;28;20228;-63
2023/10/30 10:59:48;;;;;;;14.17;13.67;;;16.60;99.90;;;;;;5033476;28;20216;-66
2023/10/30 11:02:21;;;;;;;14.43;13.93;;;16.60;99.90;;;;;;5033784;28;20263;-65
2023/10/30 11:04:50;;;;;;;16.60;16.03;;;16.60;99.90;;;;;;5032728;28;20722;-64
2023/10/30 11:07:27;;;;;;;18.43;17.80;;;16.60;99.90;;;;;;5031596;28;20290;-63
2023/10/30 11:09:57;;;;;;;18.27;17.63;;;16.50;99.90;;;;;;5031272;28;20885;-64
2023/10/30 11:12:38;;;;;;;15.70;15.20;;;16.50;99.90;;;;;;5030779;28;20248;-64
2023/10/30 11:15:15;;;;;;;18.70;18.07;;;16.50;99.90;;;;;;5029802;28;20323;-64
2023/10/30 11:18:00;;;;;;;15.00;14.50;;;16.50;99.90;;;;;;5031598;28;20234;-65
2023/10/30 11:20:28;;;;;;;18.70;18.07;;;16.50;99.90;;;;;;5037272;28;20675;-65
2023/10/30 11:22:54;;;;;;;17.53;16.97;;;16.50;99.90;;;;;;5031990;28;20236;-63
2023/10/30 11:25:47;;;;;;;15.47;14.93;;;16.50;99.90;;;;;;5030657;28;20250;-64
2023/10/30 11:28:14;;;;;;;14.80;14.30;;;16.40;99.90;;;;;;5028301;28;20209;-64
2023/10/30 11:30:43;;;;;;;18.23;17.60;;;16.50;99.90;;;;;;5031079;28;20254;-64
2023/10/30 11:33:20;;;;;;;19.30;18.63;;;16.50;99.90;;;;;;5030750;28;20760;-64
2023/10/30 11:35:52;;;;;;;16.17;15.57;;;16.50;99.90;;;;;;5031415;28;20212;-63
2023/10/30 11:38:19;;;;;;;16.73;16.13;;;16.50;99.90;;;;;;5032391;28;20212;-65
2023/10/30 11:41:01;;;;;;;18.23;17.60;;;16.40;99.90;;;;;;5030968;28;20244;-64
2023/10/30 11:43:30;;;;;;;15.10;14.60;;;16.40;99.90;;;;;;5030967;28;20279;-64
2023/10/30 11:46:04;;;;;;;19.13;18.47;;;16.40;99.90;;;;;;5031819;28;20209;-67
2023/10/30 11:48:31;;;;;;;15.77;15.27;;;16.50;99.90;;;;;;5031693;28;20303;-65
2023/10/30 11:50:58;;;;;;;17.53;16.93;;;16.50;99.90;;;;;;5031114;28;20205;-64
2023/10/30 11:53:26;;;;;;;17.30;16.70;;;16.40;99.90;;;;;;5030650;28;20290;-64
2023/10/30 11:55:54;;;;;;;20.37;19.67;;;16.60;99.90;;;;;;5030937;28;20223;-63
2023/10/30 11:58:21;;;;;;;19.27;18.60;;;16.40;99.90;;;;;;5031228;28;20208;-64
2023/10/30 12:00:48;;;;;;;23.03;22.23;;;16.40;99.90;;;;;;5030614;28;20687;-64
2023/10/30 12:03:17;;;;;;;20.67;19.90;;;16.50;99.90;;;;;;5030484;28;20622;-66
2023/10/30 12:05:43;;;;;;;21.10;20.37;;;16.40;99.90;;;;;;5030971;28;20216;-65
2023/10/30 12:08:10;;;;;;;23.37;22.53;;;16.40;99.90;;;;;;5030851;28;20880;-65
2023/10/30 12:10:39;;;;;;;25.60;24.70;;;16.40;99.90;;;;;;5031202;28;20204;-63
2023/10/30 12:13:06;;;;;;;18.83;18.20;;;16.40;99.90;;;;;;5030389;28;20208;-64
2023/10/30 12:15:33;;;;;;;22.20;21.43;;;16.40;99.90;;;;;;5031273;28;20906;-64
2023/10/30 12:18:00;;;;;;;18.40;17.80;;;16.40;99.90;;;;;;5030998;28;20209;-64
2023/10/30 12:20:28;;;;;;;20.53;19.80;;;16.40;99.90;;;;;;5031882;28;20303;-64
2023/10/30 12:22:55;;;;;;;25.10;24.20;;;16.50;99.90;;;;;;5032327;28;20238;-64
2023/10/30 12:25:22;;;;;;;20.07;19.37;;;16.40;99.90;;;;;;5042742;28;20227;-64
2023/10/30 12:27:49;;;;;;;20.03;19.33;;;16.40;99.90;;;;;;5041506;28;20587;-64